createdAt,value
2023-05-02T00:01:54.550Z,10.52
2023-05-02T00:04:21.950Z,11.55
2023-05-02T00:06:48.649Z,11.30
2023-05-02T00:09:15.936Z,10.40
2023-05-02T00:11:43.439Z,10.38
2023-05-02T00:14:09.975Z,10.18
2023-05-02T00:16:36.598Z,10.43
2023-05-02T00:19:04.353Z,10.20
2023-05-02T00:21:31.336Z,10.60
2023-05-02T00:23:58.051Z,10.48
2023-05-02T00:26:24.886Z,10.32
2023-05-02T00:28:51.478Z,10.45
2023-05-02T00:31:18.082Z,10.82
2023-05-02T00:33:44.756Z,10.65
2023-05-02T00:36:15.216Z,10.48
2023-05-02T00:38:44.738Z,10.07
2023-05-02T00:41:11.809Z,10.45
2023-05-02T00:43:41.521Z,10.82
2023-05-02T00:46:08.467Z,9.73
2023-05-02T00:48:36.639Z,10.23
2023-05-02T00:51:05.238Z,10.05
2023-05-02T00:53:32.431Z,11.07
2023-05-02T00:55:59.046Z,9.90
2023-05-02T00:58:29.366Z,10.13
2023-05-02T01:01:05.138Z,9.50
2023-05-02T01:03:39.881Z,10.30
2023-05-02T01:06:24.771Z,10.43
2023-05-02T01:09:21.133Z,9.57
2023-05-02T01:11:47.577Z,10.43
2023-05-02T01:14:14.466Z,9.63
2023-05-02T01:16:43.726Z,10.07
2023-05-02T01:19:13.958Z,9.80
2023-05-02T01:21:40.823Z,9.57
2023-05-02T01:24:22.399Z,9.93
2023-05-02T01:27:02.666Z,10.13
2023-05-02T01:29:31.077Z,10.15
2023-05-02T01:31:58.875Z,10.15
2023-05-02T01:34:26.170Z,9.80
2023-05-02T01:36:54.481Z,9.82
2023-05-02T01:39:22.642Z,10.98
2023-05-02T01:41:55.272Z,10.07
2023-05-02T01:44:23.503Z,11.38
2023-05-02T01:46:52.054Z,10.18
2023-05-02T01:49:19.516Z,9.95
2023-05-02T01:51:50.276Z,10.63
2023-05-02T01:54:17.752Z,10.30
2023-05-02T01:56:45.571Z,9.93
2023-05-02T01:59:14.320Z,9.68
2023-05-02T02:01:43.687Z,9.60
2023-05-02T02:04:13.174Z,9.70
2023-05-02T02:06:40.889Z,10.18
2023-05-02T02:09:07.410Z,10.18
2023-05-02T02:11:35.694Z,10.20
2023-05-02T02:14:06.443Z,9.63
2023-05-02T02:16:34.011Z,10.07
2023-05-02T02:19:04.416Z,9.90
2023-05-02T02:21:32.311Z,9.80
2023-05-02T02:24:01.779Z,10.07
2023-05-02T02:26:28.280Z,10.25
2023-05-02T02:28:55.950Z,9.05
2023-05-02T02:31:22.585Z,9.77
2023-05-02T02:33:51.975Z,9.13
2023-05-02T02:36:27.700Z,8.95
2023-05-02T02:39:01.849Z,8.15
2023-05-02T02:41:32.140Z,6.97
2023-05-02T02:44:17.496Z,6.60
2023-05-02T02:47:04.266Z,7.22
2023-05-02T02:49:30.721Z,7.65
2023-05-02T02:52:03.808Z,6.82
2023-05-02T02:54:35.794Z,6.70
2023-05-02T02:57:07.693Z,6.55
2023-05-02T02:59:35.822Z,7.25
2023-05-02T03:02:12.961Z,6.90
2023-05-02T03:04:42.087Z,6.80
2023-05-02T03:07:09.590Z,6.78
2023-05-02T03:09:46.315Z,7.30
2023-05-02T03:12:17.608Z,6.80
2023-05-02T03:14:45.227Z,7.43
2023-05-02T03:17:11.792Z,7.18
2023-05-02T03:19:38.840Z,7.65
2023-05-02T03:22:06.034Z,6.72
2023-05-02T03:24:34.726Z,7.18
2023-05-02T03:27:02.243Z,7.07
2023-05-02T03:29:37.283Z,7.03
2023-05-02T03:32:03.878Z,6.70
2023-05-02T03:34:34.698Z,6.70
2023-05-02T03:37:01.864Z,6.97
2023-05-02T03:39:29.463Z,7.40
2023-05-02T03:41:56.120Z,7.20
2023-05-02T03:44:26.890Z,7.28
2023-05-02T03:46:53.463Z,7.50
2023-05-02T03:49:20.110Z,6.53
2023-05-02T03:51:52.254Z,7.35
2023-05-02T03:54:24.049Z,7.03
2023-05-02T03:56:50.833Z,7.13
2023-05-02T03:59:23.127Z,7.43
2023-05-02T04:01:51.083Z,6.95
2023-05-02T04:04:20.663Z,6.55
2023-05-02T04:06:50.586Z,7.05
2023-05-02T04:09:17.375Z,7.07
2023-05-02T04:11:53.243Z,7.25
2023-05-02T04:14:20.218Z,6.78
2023-05-02T04:16:51.005Z,7.25
2023-05-02T04:19:23.041Z,7.25
2023-05-02T04:21:49.570Z,6.65
2023-05-02T04:24:16.748Z,6.82
2023-05-02T04:26:43.995Z,6.60
2023-05-02T04:29:13.476Z,6.50
2023-05-02T04:31:40.407Z,6.47
2023-05-02T04:34:07.263Z,6.95
2023-05-02T04:36:40.234Z,6.63
2023-05-02T04:39:09.711Z,6.97
2023-05-02T04:41:40.724Z,6.75
2023-05-02T04:44:07.461Z,7.03
2023-05-02T04:46:35.002Z,6.88
2023-05-02T04:49:01.589Z,6.10
2023-05-02T04:51:31.688Z,6.07
2023-05-02T04:53:58.508Z,6.75
2023-05-02T04:56:25.790Z,6.70
2023-05-02T04:58:52.404Z,6.80
2023-05-02T05:01:19.027Z,6.85
2023-05-02T05:03:46.696Z,6.30
2023-05-02T05:06:15.637Z,6.05
2023-05-02T05:08:45.495Z,6.45
2023-05-02T05:11:12.924Z,6.90
2023-05-02T05:13:42.070Z,6.88
2023-05-02T05:16:10.474Z,6.75
2023-05-02T05:18:40.851Z,6.30
2023-05-02T05:21:10.636Z,6.70
2023-05-02T05:23:37.758Z,6.55
2023-05-02T05:26:15.279Z,6.78
2023-05-02T05:28:45.027Z,6.45
2023-05-02T05:31:16.837Z,5.90
2023-05-02T05:33:46.813Z,6.68
2023-05-02T05:36:14.956Z,6.65
2023-05-02T05:38:41.525Z,6.20
2023-05-02T05:41:09.653Z,6.60
2023-05-02T05:43:38.399Z,6.80
2023-05-02T05:46:05.968Z,6.50
2023-05-02T05:48:34.103Z,6.22
2023-05-02T05:51:05.352Z,6.47
2023-05-02T05:53:32.327Z,6.10
2023-05-02T05:55:59.823Z,6.25
2023-05-02T05:58:26.364Z,5.85
2023-05-02T06:00:55.019Z,5.93
2023-05-02T06:03:21.665Z,6.07
2023-05-02T06:05:48.555Z,6.40
2023-05-02T06:08:15.166Z,6.32
2023-05-02T06:10:41.700Z,6.60
2023-05-02T06:13:08.576Z,5.80
2023-05-02T06:15:39.168Z,6.28
2023-05-02T06:18:06.996Z,6.05
2023-05-02T06:20:35.336Z,6.13
2023-05-02T06:23:01.820Z,5.90
2023-05-02T06:25:29.105Z,6.65
2023-05-02T06:27:55.840Z,6.18
2023-05-02T06:30:22.325Z,5.60
2023-05-02T06:32:51.537Z,5.85
2023-05-02T06:35:18.177Z,5.97
2023-05-02T06:37:44.738Z,5.63
2023-05-02T06:40:11.555Z,5.65
2023-05-02T06:42:38.017Z,4.93
2023-05-02T06:45:05.469Z,5.20
2023-05-02T06:47:32.936Z,5.20
2023-05-02T06:49:59.833Z,4.80
2023-05-02T06:52:26.791Z,5.65
2023-05-02T06:54:53.298Z,5.65
2023-05-02T06:57:20.036Z,5.57
2023-05-02T06:59:46.521Z,4.85
2023-05-02T07:02:13.033Z,5.22
2023-05-02T07:04:39.934Z,5.60
2023-05-02T07:07:06.570Z,5.93
2023-05-02T07:09:33.030Z,5.90
2023-05-02T07:11:59.711Z,6.10
2023-05-02T07:14:26.342Z,6.82
2023-05-02T07:16:53.473Z,6.85
2023-05-02T07:19:20.036Z,6.13
2023-05-02T07:21:46.576Z,7.28
2023-05-02T07:24:12.992Z,6.50
2023-05-02T07:26:39.691Z,6.72
2023-05-02T07:29:06.874Z,7.13
2023-05-02T07:31:33.438Z,7.55
2023-05-02T07:33:59.953Z,7.40
2023-05-02T07:36:26.583Z,6.35
2023-05-02T07:38:53.134Z,7.45
2023-05-02T07:41:19.690Z,6.60
2023-05-02T07:43:46.445Z,7.30
2023-05-02T07:46:13.394Z,7.55
2023-05-02T07:48:39.870Z,7.32
2023-05-02T07:51:07.374Z,7.47
2023-05-02T07:53:34.288Z,7.65
2023-05-02T07:56:01.039Z,8.73
2023-05-02T07:58:27.851Z,8.43
2023-05-02T08:00:54.381Z,8.35
2023-05-02T08:03:21.009Z,7.90
2023-05-02T08:05:48.046Z,7.40
2023-05-02T08:08:14.760Z,7.57
2023-05-02T08:10:41.609Z,8.00
2023-05-02T08:13:08.288Z,7.40
2023-05-02T08:15:35.813Z,8.23
2023-05-02T08:18:02.708Z,8.70
2023-05-02T08:20:29.393Z,8.85
2023-05-02T08:22:57.517Z,8.40
2023-05-02T08:25:25.107Z,9.23
2023-05-02T08:27:51.925Z,9.13
2023-05-02T08:30:18.360Z,9.05
2023-05-02T08:32:45.990Z,7.63
2023-05-02T08:35:12.936Z,7.78
2023-05-02T08:37:39.934Z,7.15
2023-05-02T08:40:08.075Z,7.57
2023-05-02T08:42:35.459Z,7.10
2023-05-02T08:45:02.557Z,6.72
2023-05-02T08:47:30.005Z,6.15
2023-05-02T08:49:57.109Z,6.28
2023-05-02T08:52:24.820Z,6.68
2023-05-02T08:54:51.901Z,6.10
2023-05-02T08:57:18.635Z,6.20
2023-05-02T08:59:45.299Z,6.38
2023-05-02T09:02:23.941Z,5.95
2023-05-02T09:04:53.892Z,6.13
2023-05-02T09:07:20.361Z,6.05
2023-05-02T09:09:47.027Z,6.68
2023-05-02T09:12:14.153Z,6.13
2023-05-02T09:14:41.980Z,6.25
2023-05-02T09:17:09.163Z,6.80
2023-05-02T09:19:36.005Z,6.70
2023-05-02T09:22:02.397Z,7.20
2023-05-02T09:24:32.160Z,7.35
2023-05-02T09:26:59.999Z,8.27
2023-05-02T09:29:27.402Z,7.72
2023-05-02T09:31:56.232Z,7.68
2023-05-02T09:34:23.761Z,7.82
2023-05-02T09:36:54.058Z,7.65
2023-05-02T09:39:25.774Z,9.13
2023-05-02T09:41:52.820Z,8.80
2023-05-02T09:44:20.528Z,8.57
2023-05-02T09:46:47.974Z,8.68
2023-05-02T09:49:15.113Z,9.40
2023-05-02T09:51:44.115Z,9.07
2023-05-02T09:54:11.274Z,8.77
2023-05-02T09:56:52.445Z,9.35
2023-05-02T09:59:19.758Z,9.18
2023-05-02T10:01:46.408Z,8.25
2023-05-02T10:04:18.804Z,8.48
2023-05-02T10:06:46.304Z,10.75
2023-05-02T10:09:18.924Z,11.02
2023-05-02T10:11:50.015Z,10.57
2023-05-02T10:14:17.037Z,9.82
2023-05-02T10:17:05.318Z,11.63
2023-05-02T10:19:45.303Z,11.00
2023-05-02T10:22:13.101Z,11.43
2023-05-02T10:24:40.613Z,11.02
2023-05-02T10:27:07.377Z,12.18
2023-05-02T10:29:34.074Z,11.48
2023-05-02T10:32:01.097Z,11.77
2023-05-02T10:34:27.643Z,12.25
2023-05-02T10:37:01.290Z,12.00
2023-05-02T10:39:28.184Z,11.75
2023-05-02T10:41:56.147Z,11.45
2023-05-02T10:44:41.472Z,10.90
2023-05-02T10:47:27.228Z,9.80
2023-05-02T10:49:55.388Z,10.27
2023-05-02T10:52:41.375Z,10.50
2023-05-02T10:55:24.023Z,11.02
2023-05-02T10:58:08.860Z,11.02
2023-05-02T11:00:35.429Z,10.32
2023-05-02T11:03:02.663Z,10.13
2023-05-02T11:05:29.451Z,11.27
2023-05-02T11:08:14.941Z,10.88
2023-05-02T11:10:41.775Z,10.32
2023-05-02T11:13:09.246Z,11.05
2023-05-02T11:15:41.707Z,10.85
2023-05-02T11:18:15.195Z,10.00
2023-05-02T11:20:41.879Z,9.65
2023-05-02T11:23:18.236Z,10.43
2023-05-02T11:25:49.447Z,10.13
2023-05-02T11:28:34.198Z,10.57
2023-05-02T11:31:00.830Z,10.00
2023-05-02T11:33:30.659Z,9.68
2023-05-02T11:35:58.151Z,9.40
2023-05-02T11:38:25.424Z,9.32
2023-05-02T11:40:55.614Z,8.82
2023-05-02T11:43:22.569Z,8.55
2023-05-02T11:45:49.377Z,8.90
2023-05-02T11:48:17.246Z,8.75
2023-05-02T11:50:49.566Z,9.05
2023-05-02T11:53:18.219Z,8.57
2023-05-02T11:55:48.366Z,8.23
2023-05-02T11:58:19.052Z,8.77
2023-05-02T12:00:47.005Z,8.82
2023-05-02T12:03:23.613Z,9.55
2023-05-02T12:05:51.316Z,9.57
2023-05-02T12:08:22.650Z,9.75
2023-05-02T12:10:49.559Z,9.35
2023-05-02T12:13:16.220Z,9.32
2023-05-02T12:18:37.450Z,8.20
2023-05-02T12:21:05.694Z,8.05
2023-05-02T12:23:32.868Z,7.55
2023-05-02T12:26:00.442Z,8.98
2023-05-02T12:28:27.489Z,8.20
2023-05-02T12:30:53.932Z,7.60
2023-05-02T12:33:20.677Z,8.18
2023-05-02T12:35:47.611Z,7.88
2023-05-02T12:38:22.724Z,7.90
2023-05-02T12:40:50.777Z,7.72
2023-05-02T12:43:17.712Z,7.85
2023-05-02T12:45:44.557Z,8.07
2023-05-02T12:48:20.496Z,7.57
2023-05-02T12:50:47.385Z,7.90
2023-05-02T12:53:14.082Z,7.55
2023-05-02T12:55:41.420Z,7.43
2023-05-02T12:58:09.901Z,6.53
2023-05-02T13:00:37.862Z,6.97
2023-05-02T13:03:04.864Z,6.45
2023-05-02T13:05:31.443Z,7.00
2023-05-02T13:07:59.154Z,7.70
2023-05-02T13:10:26.387Z,6.78
2023-05-02T13:12:53.207Z,7.07
2023-05-02T13:15:20.308Z,7.45
2023-05-02T13:17:48.027Z,8.02
2023-05-02T13:20:14.712Z,8.07
2023-05-02T13:22:41.345Z,8.38
2023-05-02T13:25:08.890Z,7.75
2023-05-02T13:27:35.423Z,6.90
2023-05-02T13:30:05.496Z,7.68
2023-05-02T13:32:34.510Z,7.43
2023-05-02T13:35:01.316Z,7.82
2023-05-02T13:37:32.089Z,7.60
2023-05-02T13:39:58.657Z,8.70
2023-05-02T13:42:25.846Z,9.02
2023-05-02T13:44:52.340Z,8.98
2023-05-02T13:47:20.032Z,9.15
2023-05-02T13:49:46.724Z,9.93
2023-05-02T13:52:13.444Z,10.40
2023-05-02T13:54:40.062Z,10.93
2023-05-02T13:57:06.941Z,9.10
2023-05-02T13:59:33.401Z,9.25
2023-05-02T14:02:00.159Z,7.45
2023-05-02T14:04:26.996Z,6.45
2023-05-02T14:06:53.608Z,6.95
2023-05-02T14:09:20.755Z,6.00
2023-05-02T14:11:48.917Z,5.95
2023-05-02T14:14:15.549Z,5.47
2023-05-02T14:16:42.536Z,5.35
2023-05-02T14:19:13.225Z,5.50
2023-05-02T14:21:39.990Z,5.65
2023-05-02T14:24:06.543Z,6.10
2023-05-02T14:26:33.290Z,6.18
2023-05-02T14:29:00.818Z,6.30
2023-05-02T14:31:27.816Z,5.68
2023-05-02T14:33:54.449Z,5.45
2023-05-02T14:36:21.190Z,5.68
2023-05-02T14:38:47.717Z,4.15
2023-05-02T14:41:14.349Z,9.70
2023-05-02T14:43:40.861Z,5.60
2023-05-02T14:46:07.536Z,5.85
2023-05-02T14:48:34.111Z,5.13
2023-05-02T14:51:03.116Z,5.68
2023-05-02T14:53:29.685Z,4.43
2023-05-02T14:55:56.257Z,4.45
2023-05-02T14:58:22.764Z,4.40
2023-05-02T15:00:49.516Z,4.25
2023-05-02T15:03:16.512Z,4.30
2023-05-02T15:05:43.206Z,4.40
2023-05-02T15:08:09.924Z,4.72
2023-05-02T15:10:37.258Z,5.72
2023-05-02T15:13:04.789Z,5.05
2023-05-02T15:15:31.376Z,5.07
2023-05-02T15:17:58.088Z,5.28
2023-05-02T15:20:24.556Z,5.60
2023-05-02T15:22:51.880Z,5.75
2023-05-02T15:25:18.511Z,6.00
2023-05-02T15:27:44.967Z,5.70
2023-05-02T15:30:11.716Z,5.78
2023-05-02T15:32:38.226Z,5.78
2023-05-02T15:35:06.669Z,5.57
2023-05-02T15:37:33.304Z,6.47
2023-05-02T15:40:00.885Z,5.90
2023-05-02T15:42:27.590Z,5.95
2023-05-02T15:44:54.182Z,6.10
2023-05-02T15:47:22.295Z,6.15
2023-05-02T15:49:51.717Z,5.68
2023-05-02T15:52:18.360Z,5.95
2023-05-02T15:54:45.272Z,5.50
2023-05-02T15:57:12.764Z,6.20
2023-05-02T15:59:39.635Z,5.13
2023-05-02T16:02:06.695Z,5.80
2023-05-02T16:04:35.080Z,6.10
2023-05-02T16:07:01.972Z,5.30
2023-05-02T16:09:31.047Z,5.70
2023-05-02T16:11:58.016Z,5.82
2023-05-02T16:14:26.162Z,5.90
2023-05-02T16:16:52.867Z,5.90
2023-05-02T16:19:19.487Z,5.75
2023-05-02T16:21:46.356Z,5.03
2023-05-02T16:24:13.043Z,4.68
2023-05-02T16:26:39.555Z,5.03
2023-05-02T16:29:06.125Z,5.53
2023-05-02T16:31:32.863Z,4.78
2023-05-02T16:33:59.665Z,4.72
2023-05-02T16:36:26.406Z,5.13
2023-05-02T16:38:53.023Z,4.80
2023-05-02T16:41:19.829Z,4.97
2023-05-02T16:43:47.029Z,5.25
2023-05-02T16:46:14.033Z,5.03
2023-05-02T16:48:40.676Z,4.78
2023-05-02T16:51:07.603Z,5.25
2023-05-02T16:53:34.185Z,4.93
2023-05-02T16:56:00.742Z,5.00
2023-05-02T16:58:30.318Z,5.38
2023-05-02T17:00:58.830Z,4.70
2023-05-02T17:03:25.617Z,4.95
2023-05-02T17:05:52.089Z,6.20
2023-05-02T17:08:18.569Z,12.98
2023-05-02T17:10:58.296Z,5.68
2023-05-02T17:13:24.945Z,5.10
2023-05-02T17:15:53.008Z,10.88
2023-05-02T17:18:19.602Z,5.07
2023-05-02T17:20:49.811Z,10.40
2023-05-02T17:23:16.878Z,6.95
2023-05-02T17:25:43.393Z,11.55
2023-05-02T17:28:10.077Z,5.80
2023-05-02T17:30:36.865Z,6.00
2023-05-02T17:33:03.647Z,5.70
2023-05-02T17:35:31.789Z,6.43
2023-05-02T17:37:58.293Z,5.90
2023-05-02T17:40:25.063Z,5.00
2023-05-02T17:42:51.617Z,5.85
2023-05-02T17:45:18.073Z,5.40
2023-05-02T17:47:44.701Z,4.70
2023-05-02T17:50:11.928Z,4.32
2023-05-02T17:52:38.706Z,4.80
2023-05-02T17:55:05.723Z,4.63
2023-05-02T17:57:32.313Z,3.88
2023-05-02T17:59:59.863Z,5.00
2023-05-02T18:02:27.575Z,4.88
2023-05-02T18:04:54.801Z,4.60
2023-05-02T18:07:24.058Z,4.43
2023-05-02T18:09:51.733Z,4.65
2023-05-02T18:12:18.953Z,4.78
2023-05-02T18:14:49.370Z,4.68
2023-05-02T18:17:24.468Z,5.15
2023-05-02T18:19:51.217Z,5.00
2023-05-02T18:22:22.226Z,5.10
2023-05-02T18:24:49.552Z,4.78
2023-05-02T18:27:16.926Z,4.60
2023-05-02T18:29:43.889Z,4.25
2023-05-02T18:32:10.623Z,4.75
2023-05-02T18:34:39.058Z,4.45
2023-05-02T18:37:05.927Z,4.57
2023-05-02T18:39:36.303Z,4.22
2023-05-02T18:42:03.543Z,4.55
2023-05-02T18:44:30.561Z,4.20
2023-05-02T18:47:01.018Z,4.10
2023-05-02T18:49:28.070Z,4.60
2023-05-02T18:51:55.575Z,4.05
2023-05-02T18:54:23.526Z,4.55
2023-05-02T18:56:50.514Z,4.15
2023-05-02T18:59:18.848Z,4.05
2023-05-02T19:01:45.972Z,4.22
2023-05-02T19:04:12.708Z,4.57
2023-05-02T19:06:40.818Z,4.03
2023-05-02T19:09:07.465Z,4.35
2023-05-02T19:11:35.925Z,4.13
2023-05-02T19:14:03.633Z,4.78
2023-05-02T19:16:31.518Z,4.47
2023-05-02T19:18:58.998Z,4.28
2023-05-02T19:21:26.194Z,5.07
2023-05-02T19:24:04.752Z,4.55
2023-05-02T19:26:31.855Z,3.95
2023-05-02T19:28:58.595Z,4.60
2023-05-02T19:31:25.175Z,5.03
2023-05-02T19:33:52.034Z,4.72
2023-05-02T19:36:20.353Z,4.57
2023-05-02T19:38:51.112Z,5.25
2023-05-02T19:41:17.961Z,5.00
2023-05-02T19:43:44.659Z,5.32
2023-05-02T19:46:11.609Z,5.53
2023-05-02T19:48:38.405Z,6.40
2023-05-02T19:51:05.328Z,5.43
2023-05-02T19:53:32.344Z,5.93
2023-05-02T19:55:59.514Z,6.10
2023-05-02T19:58:26.632Z,6.65
2023-05-02T20:00:53.640Z,7.00
2023-05-02T20:03:20.976Z,6.65
2023-05-02T20:05:47.860Z,6.88
2023-05-02T20:08:14.518Z,6.88
2023-05-02T20:10:41.032Z,6.35
2023-05-02T20:13:07.627Z,6.35
2023-05-02T20:15:34.129Z,5.90
2023-05-02T20:18:02.135Z,6.25
2023-05-02T20:20:29.077Z,6.05
2023-05-02T20:22:56.981Z,5.97
2023-05-02T20:25:24.105Z,6.13
2023-05-02T20:27:51.292Z,5.68
2023-05-02T20:30:18.162Z,6.05
2023-05-02T20:32:44.839Z,5.80
2023-05-02T20:35:11.495Z,6.05
2023-05-02T20:37:40.056Z,5.88
2023-05-02T20:40:10.140Z,5.90
2023-05-02T20:42:38.958Z,6.38
2023-05-02T20:45:09.176Z,6.35
2023-05-02T20:47:35.889Z,6.50
2023-05-02T20:50:02.603Z,6.22
2023-05-02T20:52:31.392Z,6.57
2023-05-02T20:54:58.011Z,5.97
2023-05-02T20:57:28.054Z,5.80
2023-05-02T20:59:56.460Z,6.97
2023-05-02T21:02:24.033Z,5.80
2023-05-02T21:04:51.252Z,5.78
2023-05-02T21:07:17.946Z,5.82
2023-05-02T21:09:44.585Z,5.60
2023-05-02T21:12:11.246Z,5.68
2023-05-02T21:14:37.907Z,6.15
2023-05-02T21:17:04.659Z,6.15
2023-05-02T21:19:34.770Z,5.78
2023-05-02T21:22:01.560Z,5.75
2023-05-02T21:24:28.063Z,5.32
2023-05-02T21:26:54.619Z,6.47
2023-05-02T21:29:21.297Z,5.47
2023-05-02T21:31:47.854Z,5.55
2023-05-02T21:34:14.270Z,5.70
2023-05-02T21:36:42.249Z,5.93
2023-05-02T21:39:09.817Z,5.53
2023-05-02T21:41:36.356Z,6.45
2023-05-02T21:44:05.193Z,6.30
2023-05-02T21:46:31.927Z,6.53
2023-05-02T21:48:58.469Z,6.38
2023-05-02T21:51:25.140Z,6.80
2023-05-02T21:53:53.512Z,5.90
2023-05-02T21:56:20.094Z,5.60
2023-05-02T21:58:49.548Z,6.15
2023-05-02T22:01:16.202Z,5.70
2023-05-02T22:03:43.066Z,6.03
2023-05-02T22:06:09.640Z,6.18
2023-05-02T22:08:36.351Z,6.85
2023-05-02T22:11:08.048Z,5.80
2023-05-02T22:13:34.711Z,5.82
2023-05-02T22:16:01.545Z,6.50
2023-05-02T22:18:28.677Z,5.97
2023-05-02T22:20:58.630Z,5.45
2023-05-02T22:23:25.994Z,5.55
2023-05-02T22:25:52.810Z,6.25
2023-05-02T22:28:19.487Z,6.13
2023-05-02T22:30:46.020Z,5.15
2023-05-02T22:33:14.161Z,5.30
2023-05-02T22:35:40.865Z,5.03
2023-05-02T22:38:10.911Z,4.68
2023-05-02T22:40:37.406Z,4.82
2023-05-02T22:43:04.324Z,4.22
2023-05-02T22:45:30.906Z,4.13
2023-05-02T22:47:57.594Z,4.70
2023-05-02T22:50:26.419Z,4.07
2023-05-02T22:53:04.158Z,4.13
2023-05-02T22:55:30.878Z,4.80
2023-05-02T22:57:57.913Z,4.25
2023-05-02T23:00:25.214Z,4.18
2023-05-02T23:02:51.980Z,4.30
2023-05-02T23:05:18.885Z,4.18
2023-05-02T23:07:45.543Z,4.22
2023-05-02T23:10:12.177Z,3.58
2023-05-02T23:12:38.867Z,3.90
2023-05-02T23:15:06.431Z,4.07
2023-05-02T23:17:32.979Z,4.35
2023-05-02T23:19:59.529Z,3.70
2023-05-02T23:22:26.057Z,3.67
2023-05-02T23:24:52.562Z,3.90
2023-05-02T23:27:19.238Z,3.65
2023-05-02T23:29:51.412Z,3.70
2023-05-02T23:32:17.944Z,3.50
2023-05-02T23:34:44.971Z,4.05
2023-05-02T23:37:12.159Z,3.63
2023-05-02T23:39:41.408Z,3.75
2023-05-02T23:42:08.146Z,4.07
2023-05-02T23:44:36.736Z,4.13
2023-05-02T23:47:03.294Z,3.92
2023-05-02T23:49:29.922Z,3.63
2023-05-02T23:51:56.532Z,3.90
2023-05-02T23:54:23.422Z,3.47
2023-05-02T23:56:49.934Z,3.60
2023-05-02T23:59:16.625Z,3.72
